AirNav   Air Wisconsin Up To $57,000 Bonus
 
 1607 users online  

64FL District VI Heliport
Miami, Florida, USA

GOING TO MIAMI?


FAA INFORMATION EFFECTIVE 02 JANUARY 2020

Location

FAA Identifier: 64FL
Lat/Long: 25-46-55.1300N 080-22-39.0800W
25-46.918833N 080-22.651333W
25.7819806,-80.3775222
(estimated)
Elevation: 8 ft. / 2 m (estimated)
From city: 9 miles NE of MIAMI, FL
Time zone: UTC -5 (UTC -4 during Daylight Saving Time)
Zip code: 33172

Heliport Operations

Heliport use: Private use. Permission required prior to landing
Activation date: 07/2004
Control tower: no
ARTCC: MIAMI CENTER
FSS: MIAMI FLIGHT SERVICE STATION
Attendance: UNATNDD
Wind indicator: yes
Segmented circle: no

Heliport Communications

WX ASOS at MIA (5 nm E): PHONE 305-870-0235
WX ASOS at TMB (9 nm S): PHONE 305-235-1332
WX ASOS at OPF (9 nm NE): 125.9 (305-681-4063)
WX ASOS at HWO (15 nm NE): PHONE 954-983-5904
WX AWOS-3 at X51 (19 nm SW): 118.375 ((305) 247-2791)

Nearby radio navigation aids

VOR radial/distance  VOR name  Freq  Var
DHPr239/1.9DOLPHIN VORTAC113.9004W
VKZr283/12.2VIRGINIA KEY VOR/DME117.1004W
FLLr219/20.9FORT LAUDERDALE VOR/DME114.4006W

Heliport Services

Runway Information

Helipad H1

Dimensions: 20 x 20 ft. / 6 x 6 m
Surface: concrete
Latitude: 25-46.918833N
Longitude: 080-22.651333W
Elevation: 8.0 ft.
Traffic pattern: leftleft

Heliport Ownership and Management from official FAA records

Ownership: Privately-owned
Owner: FLORIDA DOT
1000 NW 111 AVENUE
MIAMI, FL 33172-5800
Phone 305-470-5366
Manager: C. JEAN CANN
1000 NW 111 AVENUE
MIAMI, FL 33172-5800
Phone 305-470-5353

Additional Remarks

FOR CD CTC MIAMI APCH AT 305-869-5432.

Instrument Procedures

There are no published instrument procedures at 64FL.

Some nearby airports with instrument procedures:

KMIA - Miami International Airport (5 nm E)
KTMB - Miami Executive Airport (9 nm S)
KOPF - Miami-Opa Locka Executive Airport (9 nm NE)
KHWO - North Perry Airport (15 nm NE)
KHST - Homestead Air Reserve Base (18 nm S)
X51 - Miami Homestead General Aviation Airport (19 nm SW)
 
Loc | Ops | Rwys | IFR | FBO | Links
Com | Nav | Svcs | Stats | Notes

Reliance Aviation
AirBoss

 
Area around 64FL (District VI Heliport)
 
Road maps at: MapQuest Bing Google
 
Aerial photo
No photo
 
Sectional chart

 
Airport distance calculator
Flying to District VI Heliport? Find the distance to fly.

From to 64FL

Sunrise and sunset
Times for 21-Jan-2020
 Local
(UTC-5)
 Zulu
(UTC)
Morning civil twilight06:4611:46
Sunrise07:1012:10
Sunset17:5622:56
Evening civil twilight18:2023:20

Current date and time
Zulu (UTC)  21-Jan-2020 14:56:27
Local (UTC-5)  21-Jan-2020 09:56:27
 
METAR
KMIA 
3nm E 
211353Z 33007KT 10SM FEW015 FEW250 14/09 A3014 RMK AO2 SLP205 T01440089
KTMB 
8nm S 
211353Z 33009KT 10SM SCT009 13/11 A3013 RMK AO2 SLP202 T01330106
KOPF 
10nm NE 
211353Z 34011KT 10SM CLR 14/10 A3013 RMK AO2 SLP205 T01440100
KHWO 
15nm NE 
211353Z 33013KT 10SM CLR 14/09 A3014 RMK AO2 SLP207 T01440089
KHST 
19nm S 
211356Z AUTO 32010KT 10SM CLR 13/10 A3011 RMK AO2 SLP200 T01300098 $
TAF
KMIA 
3nm E 
211131Z 2112/2218 33010KT P6SM SCT250 FM211400 32012G20KT P6SM FEW050 SCT250 FM220200 35014KT P6SM FEW050 SCT250
KTMB 
8nm S 
211131Z 2112/2212 35010KT P6SM SCT250 TEMPO 2112/2113 BKN009 FM211400 33012G20KT P6SM FEW050 SCT250 FM220200 35014KT P6SM FEW050 SCT250
KOPF 
10nm NE 
211131Z 2112/2212 33010KT P6SM SCT250 FM211400 33012G20KT P6SM FEW050 SCT250 FM220200 35014KT P6SM FEW050 SCT250
KHST 
19nm S 
211200Z 2112/2218 34012KT 9999 BKN008 QNH3005INS TEMPO 2113/2115 FEW008 FEW022 BECMG 2115/2116 32015G25KT 9999 FEW200 QNH3005INS TX20/2119Z TN05/2211Z
NOTAMs
Click for the latest NOTAMs
NOTAMs are issued by the DoD/FAA and will open in a separate window not controlled by AirNav.

 

 
 

Would you like to see your business listed on this page?

 If your business provides an interesting product or service to pilots, flight crews, aircraft, or users of the District VI Heliport, you should consider listing it here.  To start the listing process, click on the button below
 
Add a business
 

Other Pages about District VI Heliport

Update a link
 
Copyright © AirNav, LLC. All rights reserved. Privacy Policy  Contact